Tylersville, Pennsylvania
Current Conditions -  °F | °C
As of 1:35 AM on Saturday 25 Oct 2014 (Local Time) from KUNV Reporting Station
Clear Clear  
Wind Chill: 45°   Ceiling: Unl
Heat Index: 47°   Visibility: 10mi
Dew Point: 37°   Wind: 5mph
Humidity: 69%   Direction: 220°SW
Pressure: 29.96"   Gusts: NA
Location:  40.99°N, 77.42°W
Report Text: KUNV 250535Z AUTO 22004KT 10SM CLR 08/03 A2996 RMK AO2 T00830030
Loading
Personal Weather Stations






























Interactive Weather Map
Tropical Storm Tracking
New forecast layout! Learn more

10-Day Weather Forecast

Advertisements
Track Severe Weather on mobile